الصفحة الرئيسية
METAR-TAF:

METAR-TAF

مطار :

كوناكري, غينيا

مطار كوناكري الدولي

دائرة عرض: 09-34N, خط طول: 013-37W, ارتفاع: 26 متر

مراقبة الطقس الحالي

تاريخ ووقت الإصدار 1ساعة و 15 دقيقة قبل الساعة 10:00UTC
ريح 12 عقدة من الشمال/الشمال الشرقي
درجة الحرارة 26°درجة مئوية
الرطوبة 79%
ضغط 1013 hPa
الرؤية: 4000 متر
غيوم قليلة على ارتفاع 1500 قدم
غشاء

METAR: GUCY 171000Z 02012KT 4000 BR FEW015 26/22 Q1013 NOSIG

زمن: 11:15 (11:15 UTC)

توقعات

تاريخ ووقت الإصدار 6ساعات و 15 دقيقة قبل الساعة 05:00UTC
التوقعات صالحة من17 الساعة 06 UTC إلى 18 الساعة 12 UTC
ريح 6 عقدة من الغرب/الشمال الغربي
الرؤية: 5000 متر
العجاج
أصبح
من 17 الساعة 06 UTC إلى 17 الساعة 10 UTC
ريح 2 عقدةمن اتجاهات متغيرة
الرؤية: 3000 متر
غيوم قليلة على ارتفاع 1500 قدم
غشاء
مؤقت
من 17 الساعة 16 UTC إلى 17 الساعة 22 UTC
ريح 4 عقدة من الجنوب الغربي
الرؤية: 4000 متر
العجاج

TAF: GUCY 170500Z 1706/1812 30006KT 5000 HZ NSC BECMG 1706/1710 VRB02KT 3000 BR FEW015 TEMPO 1716/1722 22004KT 4000 HZ NSC

أرصاد الطقس والتوقعات من أكثر من 4000 مطار (تقارير الطقس للمطار METAR والتنبؤ بالطقس بالمطارTAF).

المحطات المتاحة هي النقط الصفراء والحمراء على الخريطة.

حرك المؤشر فوق النقطة لمعرفة اسم المحطة.

ثم انقر لمعرفة أرصاد وتوقعات الطقس.

لتغيير الخارطة: اضغط على الأزرار الخضراء مع رمز الصليب الأسود للتكبير. على الزر الأخضر مع شرطة للتصغير، أو على الأسهم الخضراء للخرائط المجاورة.


METAR-TAF: